createdAt,value
2023-06-30T00:04:07.465Z,99661.34
2023-06-30T00:09:10.357Z,99668.88
2023-06-30T00:14:13.132Z,99661.38
2023-06-30T00:19:17.644Z,99651.50
2023-06-30T00:24:20.524Z,99648.63
2023-06-30T00:29:24.073Z,99650.50
2023-06-30T00:34:29.072Z,99656.16
2023-06-30T00:39:31.871Z,99651.72
2023-06-30T00:44:36.973Z,99654.13
2023-06-30T00:49:41.726Z,99646.28
2023-06-30T00:54:44.617Z,99645.25
2023-06-30T00:59:47.479Z,99643.94
2023-06-30T01:04:59.776Z,99633.16
2023-06-30T01:10:09.005Z,99629.13
2023-06-30T01:15:13.572Z,99619.38
2023-06-30T01:20:20.223Z,99598.94
2023-06-30T01:25:27.611Z,99599.31
2023-06-30T01:30:31.264Z,99578.88
2023-06-30T01:35:36.049Z,99581.97
2023-06-30T01:40:39.111Z,99571.22
2023-06-30T01:45:42.809Z,99568.00
2023-06-30T01:50:47.732Z,99559.09
2023-06-30T01:55:51.483Z,99561.16
2023-06-30T02:00:54.558Z,99558.63
2023-06-30T02:05:58.810Z,99541.75
2023-06-30T02:11:01.668Z,99550.13
2023-06-30T02:16:04.592Z,99556.41
2023-06-30T02:21:08.859Z,99561.19
2023-06-30T02:26:11.740Z,99568.69
2023-06-30T02:31:14.745Z,99562.56
2023-06-30T02:36:18.949Z,99569.06
2023-06-30T02:41:21.791Z,99567.69
2023-06-30T02:46:24.657Z,99582.19
2023-06-30T02:51:29.122Z,99594.63
2023-06-30T02:56:33.014Z,99590.34
2023-06-30T03:01:36.857Z,99581.53
2023-06-30T03:06:41.525Z,99583.56
2023-06-30T03:11:45.994Z,99585.59
2023-06-30T03:16:49.442Z,99578.63
2023-06-30T03:21:54.148Z,99577.78
2023-06-30T03:26:56.936Z,99566.19
2023-06-30T03:32:02.038Z,99573.53
2023-06-30T03:37:06.822Z,99581.03
2023-06-30T03:42:09.876Z,99580.88
2023-06-30T03:47:14.264Z,99577.66
2023-06-30T03:52:18.559Z,99573.56
2023-06-30T03:57:21.386Z,99570.84
2023-06-30T04:02:24.665Z,99576.28
2023-06-30T04:07:29.038Z,99565.22
2023-06-30T04:12:32.186Z,99567.06
2023-06-30T04:17:35.103Z,99572.00
2023-06-30T04:22:39.653Z,99551.44
2023-06-30T04:27:42.460Z,99551.78
2023-06-30T04:32:45.298Z,99547.69
2023-06-30T04:37:49.515Z,99546.31
2023-06-30T04:42:52.287Z,99557.88
2023-06-30T04:47:55.180Z,99551.41
2023-06-30T04:52:59.491Z,99559.88
2023-06-30T04:58:02.422Z,99551.63
2023-06-30T05:03:05.676Z,99560.00
2023-06-30T05:08:09.980Z,99558.09
2023-06-30T05:13:12.799Z,99560.84
2023-06-30T05:18:16.462Z,99554.75
2023-06-30T05:23:21.080Z,99555.38
2023-06-30T05:28:23.961Z,99547.31
2023-06-30T05:33:27.014Z,99553.63
2023-06-30T05:38:31.649Z,99560.47
2023-06-30T05:43:34.419Z,99566.56
2023-06-30T05:48:37.268Z,99567.84
2023-06-30T05:53:41.435Z,99575.16
2023-06-30T05:58:44.260Z,99585.94
2023-06-30T06:03:47.286Z,99578.97
2023-06-30T06:08:51.631Z,99583.41
2023-06-30T06:13:54.995Z,99578.88
2023-06-30T06:18:57.961Z,99582.06
2023-06-30T06:24:02.403Z,99589.00
2023-06-30T06:29:05.551Z,99593.41
2023-06-30T06:34:08.467Z,99585.13
2023-06-30T06:39:12.972Z,99581.47
2023-06-30T06:44:15.900Z,99578.72
2023-06-30T06:49:18.822Z,99567.66
2023-06-30T06:54:26.672Z,99582.75
2023-06-30T06:59:29.837Z,99579.59
2023-06-30T07:04:32.625Z,99576.97
2023-06-30T07:09:36.817Z,99575.72
2023-06-30T07:14:39.788Z,99576.97
2023-06-30T07:19:43.789Z,99579.31
2023-06-30T07:24:48.272Z,99578.84
2023-06-30T07:29:52.196Z,99573.41
2023-06-30T07:34:55.012Z,99568.69
2023-06-30T07:40:05.711Z,99575.84
2023-06-30T07:45:19.266Z,99579.75
2023-06-30T07:50:22.187Z,99572.94
2023-06-30T07:55:26.836Z,99568.03
2023-06-30T08:00:30.368Z,99570.03
2023-06-30T08:05:34.144Z,99576.31
2023-06-30T08:10:39.995Z,99569.72
2023-06-30T08:15:45.861Z,99576.50
2023-06-30T08:20:51.378Z,99555.13
2023-06-30T08:25:56.460Z,99559.78
2023-06-30T08:30:59.493Z,99553.25
2023-06-30T08:36:02.825Z,99567.94
2023-06-30T08:41:07.513Z,99565.41
2023-06-30T08:46:12.694Z,99562.03
2023-06-30T08:51:17.471Z,99549.19
2023-06-30T08:56:22.925Z,99554.06
2023-06-30T09:01:27.266Z,99556.63
2023-06-30T09:06:30.829Z,99567.72
2023-06-30T09:11:36.010Z,99546.25
2023-06-30T09:16:38.920Z,99547.19
2023-06-30T09:21:42.225Z,99553.56
2023-06-30T09:26:46.678Z,99540.47
2023-06-30T09:31:52.374Z,99534.19
2023-06-30T09:36:56.774Z,99542.69
2023-06-30T09:42:00.988Z,99543.56
2023-06-30T09:47:04.617Z,99537.81
2023-06-30T09:52:10.197Z,99527.97
2023-06-30T09:57:17.657Z,99515.38
2023-06-30T10:02:20.718Z,99524.91
2023-06-30T10:07:23.722Z,99526.59
2023-06-30T10:12:29.499Z,99519.28
2023-06-30T10:17:33.762Z,99519.81
2023-06-30T10:22:38.209Z,99523.72
2023-06-30T10:27:43.205Z,99538.00
2023-06-30T10:32:46.464Z,99528.28
2023-06-30T10:37:49.945Z,99528.94
2023-06-30T10:42:57.513Z,99521.47
2023-06-30T10:48:10.236Z,99520.47
2023-06-30T10:53:32.241Z,99533.88
2023-06-30T10:58:44.982Z,99522.81
2023-06-30T11:04:13.575Z,99543.06
2023-06-30T11:09:16.655Z,99516.69
2023-06-30T11:14:34.137Z,99529.44
2023-06-30T11:19:38.522Z,99521.97
2023-06-30T11:24:41.925Z,99518.88
2023-06-30T11:29:47.354Z,99512.59
2023-06-30T11:34:50.901Z,99512.59
2023-06-30T11:39:54.533Z,99501.50
2023-06-30T11:44:58.805Z,99512.25
2023-06-30T11:50:07.092Z,99507.66
2023-06-30T11:55:11.399Z,99507.66
2023-06-30T12:00:18.785Z,99526.72
2023-06-30T12:05:33.991Z,99542.91
2023-06-30T12:10:39.410Z,99547.34
2023-06-30T12:15:44.712Z,99561.13
2023-06-30T12:20:47.819Z,99571.16
2023-06-30T12:25:50.857Z,99560.44
2023-06-30T12:30:56.111Z,99555.84
2023-06-30T12:35:58.957Z,99555.00
2023-06-30T12:41:01.963Z,99566.75
2023-06-30T12:46:06.306Z,99553.97
2023-06-30T12:51:10.075Z,99546.63
2023-06-30T12:56:13.260Z,99549.03
2023-06-30T13:01:17.867Z,99548.38
2023-06-30T13:06:20.922Z,99552.63
2023-06-30T13:11:24.335Z,99556.34
2023-06-30T13:16:28.687Z,99558.41
2023-06-30T13:21:31.898Z,99552.78
2023-06-30T13:26:36.333Z,99557.25
2023-06-30T13:31:44.137Z,99575.84
2023-06-30T13:36:48.674Z,99572.78
2023-06-30T13:41:51.514Z,99583.09
2023-06-30T13:46:56.344Z,99578.75
2023-06-30T13:51:59.831Z,99581.91
2023-06-30T13:57:02.952Z,99576.34
2023-06-30T14:02:07.838Z,99578.38
2023-06-30T14:07:10.804Z,99574.91
2023-06-30T14:12:13.709Z,99571.69
2023-06-30T14:17:18.226Z,99576.63
2023-06-30T14:22:21.165Z,99580.47
2023-06-30T14:27:24.056Z,99566.16
2023-06-30T14:32:29.057Z,99586.91
2023-06-30T14:37:31.938Z,99583.63
2023-06-30T14:42:34.782Z,99587.28
2023-06-30T14:47:39.005Z,99583.41
2023-06-30T14:52:41.781Z,99577.13
2023-06-30T14:57:46.556Z,99582.38
2023-06-30T15:02:52.019Z,99581.34
2023-06-30T15:07:56.622Z,99589.53
2023-06-30T15:12:59.488Z,99588.88
2023-06-30T15:18:03.886Z,99579.19
2023-06-30T15:23:06.816Z,99569.66
2023-06-30T15:28:09.978Z,99566.66
2023-06-30T15:33:15.395Z,99569.34
2023-06-30T15:38:18.369Z,99559.84
2023-06-30T15:43:21.286Z,99560.28
2023-06-30T15:48:25.618Z,99561.47
2023-06-30T15:53:28.540Z,99571.59
2023-06-30T15:58:31.545Z,99567.19
2023-06-30T16:03:39.074Z,99562.34
2023-06-30T16:08:42.106Z,99563.31
2023-06-30T16:13:45.111Z,99565.25
2023-06-30T16:18:50.333Z,99577.25
2023-06-30T16:23:54.011Z,99570.56
2023-06-30T16:28:57.160Z,99578.38
2023-06-30T16:34:11.949Z,99584.06
2023-06-30T16:39:20.979Z,99577.91
2023-06-30T16:44:24.010Z,99570.97
2023-06-30T16:49:31.387Z,99566.94
2023-06-30T16:54:34.229Z,99574.06
2023-06-30T16:59:37.423Z,99577.00
2023-06-30T17:04:41.839Z,99571.97
2023-06-30T17:09:44.767Z,99579.94
2023-06-30T17:14:47.648Z,99571.16
2023-06-30T17:19:52.113Z,99569.13
2023-06-30T17:24:58.482Z,99566.59
2023-06-30T17:30:08.709Z,99563.69
2023-06-30T17:35:13.015Z,99563.16
2023-06-30T17:40:16.038Z,99565.56
2023-06-30T17:45:18.871Z,99560.59
2023-06-30T17:50:26.142Z,99564.69
2023-06-30T17:55:28.956Z,99564.88
2023-06-30T18:00:31.864Z,99568.97
2023-06-30T18:05:36.388Z,99564.53
2023-06-30T18:10:41.714Z,99561.13
2023-06-30T18:15:45.257Z,99563.84
2023-06-30T18:20:49.671Z,99553.44
2023-06-30T18:25:55.547Z,99560.59
2023-06-30T18:30:58.514Z,99572.69
2023-06-30T18:36:02.887Z,99576.78
2023-06-30T18:41:05.975Z,99576.94
2023-06-30T18:46:09.078Z,99574.53
2023-06-30T18:51:13.801Z,99573.16
2023-06-30T18:56:16.740Z,99577.94
2023-06-30T19:01:19.886Z,99584.63
2023-06-30T19:06:25.515Z,99579.50
2023-06-30T19:11:28.552Z,99582.69
2023-06-30T19:16:31.657Z,99574.66
2023-06-30T19:21:36.033Z,99570.59
2023-06-30T19:26:38.906Z,99570.44
2023-06-30T19:31:42.053Z,99577.19
2023-06-30T19:36:46.680Z,99585.69
2023-06-30T19:41:49.732Z,99594.97
2023-06-30T19:46:52.681Z,99604.53
2023-06-30T19:51:56.979Z,99594.63
2023-06-30T19:56:59.800Z,99591.38
2023-06-30T20:02:02.789Z,99594.44
2023-06-30T20:07:09.418Z,99609.91
2023-06-30T20:12:12.401Z,99609.56
2023-06-30T20:17:15.333Z,99603.09
2023-06-30T20:22:19.481Z,99597.28
2023-06-30T20:27:22.456Z,99604.78
2023-06-30T20:32:25.622Z,99613.97
2023-06-30T20:37:29.815Z,99613.13
2023-06-30T20:42:32.767Z,99604.78
2023-06-30T20:47:36.018Z,99607.31
2023-06-30T20:52:40.320Z,99602.97
2023-06-30T20:57:43.220Z,99594.94
2023-06-30T21:02:46.291Z,99600.81
2023-06-30T21:07:50.906Z,99598.41
2023-06-30T21:12:56.155Z,99585.47
2023-06-30T21:17:59.141Z,99582.38
2023-06-30T21:23:03.320Z,99584.38
2023-06-30T21:28:06.349Z,99575.28
2023-06-30T21:33:09.397Z,99584.00
2023-06-30T21:38:13.694Z,99578.97
2023-06-30T21:43:16.536Z,99570.16
2023-06-30T21:48:19.377Z,99569.63
2023-06-30T21:53:23.484Z,99563.66
2023-06-30T21:58:27.931Z,99560.94
2023-06-30T22:03:32.325Z,99551.91
2023-06-30T22:08:36.570Z,99548.28
2023-06-30T22:13:39.453Z,99559.84
2023-06-30T22:18:42.579Z,99554.53
2023-06-30T22:23:46.845Z,99555.91
2023-06-30T22:28:49.892Z,99556.75
2023-06-30T22:33:52.712Z,99556.06
2023-06-30T22:38:56.901Z,99556.31
2023-06-30T22:44:00.637Z,99560.97
2023-06-30T22:49:04.674Z,99554.50
2023-06-30T22:54:09.031Z,99560.03
2023-06-30T22:59:12.017Z,99556.59
2023-06-30T23:04:14.918Z,99549.16
2023-06-30T23:09:19.089Z,99549.19
2023-06-30T23:14:22.514Z,99540.69
2023-06-30T23:19:27.427Z,99536.78
2023-06-30T23:24:33.897Z,99534.38
2023-06-30T23:29:38.617Z,99536.41
2023-06-30T23:34:41.704Z,99531.44
2023-06-30T23:39:48.344Z,99532.47
2023-06-30T23:44:51.495Z,99532.84
2023-06-30T23:49:54.377Z,99529.88
2023-06-30T23:54:58.559Z,99524.75
